首页
METAR-TAF:

METAR-TAF

机场 :

贝尔加莫, 意大利

纬度: 45-40N, 经度: 009-42E, 海拔: 238米

当前天气观测

该预报发布于15分钟前的10:20 UTC
风速4节,风向,在东南西转西南之间变化
温度 12°C
湿度 62%
气压 1016 hPa
能见度10公里或以上
1500米以下无云,无积雨云

METAR: LIME 051020Z 18004KT 140V250 CAVOK 12/05 Q1016 NOSIG

时间: 11:35 (10:35 UTC)

预报

该预报发布于5小时和35分钟前的05:00 UTC
预报有效从05日的 06点(UTC)到 06日的 06点(UTC)
风速5节,风向多变
能见度10公里或以上
1500米以下无云,无积雨云
成为
从 05日的 19点(UTC)到 05日的 21点(UTC)
能見度: 4000
多云层高于1400英尺
多云层高于3000英尺
阵雨

TAF: LIME 050500Z 0506/0606 VRB05KT CAVOK BECMG 0519/0521 4000 SHRA BKN014 BKN030

超过4000个机场的气象观测和天气预报(METAR&TAF报告)。

可查询的气象台以黄色和红色小点在地图上表示。

将鼠标移到小点上方,可查看气象台名称。

然后点击查看天气观测和预报。

如需切换地图:点击带黑十字的绿色按钮放大地图;点击带横线的绿色按钮缩小地图;或者点击绿色箭头查看邻近地区的地图。


METAR-TAF: